Latest Coastal Weather Observations for Maningrida Airport

IDD60701

Issued at 3:31 pm CST Wednesday 4 May 2016 (issued every 10 minutes, with the page automatically refreshed every 10 minutes)

About coastal observations | Map of coastal stations | Coastal observations for NT | Marine services | Other Formats
Station Details ID: 014405 Name: MANINGRIDA AIRPORT Lat: -12.06 Lon: 134.23 Height: 28.1 m
Data from the previous 72 hours. | See also: Recent months at Maningrida Airport
Date/Time
CST
Temp

°C
Wind Pressure Rain
since 9am
mm
Weather Cloud Vis
km
Sea
Height
m
Swell
Dir
 
Speed
knots
Gust
knots
hPa Trend Height
m
Period
s
Dir
04/03:30pm 31.9 ENE 9 12 1008.6 - 0.0 - Partly cloudy 10 - - - -
04/03:00pm 31.8 ENE 9 15 1008.8 - 0.0 - - 10 - - - -
04/02:30pm 32.2 NE 9 13 1008.9 - 0.0 - Partly cloudy 10 - - - -
04/02:00pm 32.4 ENE 9 13 1009.3 - 0.0 - - 10 - - - -
04/01:30pm 32.6 ENE 10 16 1009.7 - 0.0 - - 10 - - - -
04/01:00pm 32.2 ENE 11 16 1010.1 - 0.0 - Partly cloudy 10 - - - -
04/12:30pm 32.4 ENE 7 10 1010.6 - 0.0 - Partly cloudy 10 - - - -
04/12:00pm 31.5 ENE 8 13 1011.2 - 0.0 - Cloudy 10 - - - -
04/11:30am 31.8 E 9 15 1011.7 - 0.0 - Partly cloudy 10 - - - -
04/11:00am 31.5 ENE 9 13 1012.3 - 0.0 - Partly cloudy 10 - - - -
04/10:30am 30.9 ENE 9 15 1012.5 - 0.0 - Partly cloudy 10 - - - -
04/10:00am 30.1 ENE 9 15 1012.7 - 0.0 - Partly cloudy 10 - - - -
04/09:30am 29.3 E 8 12 1012.9 - 0.0 - Partly cloudy 10 - - - -
04/09:00am 29.0 E 6 9 1012.6 - 2.2 - - 10 - - - -
04/08:30am 28.1 ESE 7 10 1012.4 - 2.2 - - 10 - - - -
04/08:00am 26.7 SSE 5 6 1012.2 - 2.2 - - 10 - - - -
04/07:30am 25.6 SSE 5 6 1011.8 - 2.2 - - 10 - - - -
04/07:00am 24.6 SSE 5 6 1011.5 - 2.2 - - 10 - - - -
04/06:30am 24.6 SSE 4 5 1011.1 - 2.2 - - 10 - - - -
04/06:00am 24.8 SSE 4 5 1011.0 - 2.2 - Mostly clear 10 - - - -
04/05:30am 25.0 SE 3 5 1010.8 - 2.2 - - 10 - - - -
04/05:00am 25.5 SE 4 5 1010.5 - 2.2 - Partly cloudy 10 - - - -
04/04:30am 25.5 SSE 4 5 1010.1 - 2.2 - - 10 - - - -
04/04:00am 25.8 SSE 5 6 1010.2 - 2.2 - - 10 - - - -
04/03:30am 25.8 SE 5 6 1010.5 - 2.2 - - 10 - - - -
04/03:00am 26.0 SE 5 6 1010.6 - 2.2 - Cloudy 10 - - - -
04/02:30am 25.9 SSE 4 5 1010.7 - 2.2 - - 10 - - - -
04/02:00am 26.1 SSE 4 5 1010.8 - 2.2 - - 10 - - - -
04/01:30am 26.3 SSE 5 7 1011.0 - 2.2 - - 10 - - - -
04/01:00am 26.5 ESE 5 7 1011.1 - 2.2 - - 10 - - - -
04/12:30am 26.7 ESE 6 9 1011.5 - 2.2 - - 10 - - - -
04/12:00am 26.7 ESE 6 8 1011.7 - 2.2 - Cloudy 10 - - - -
 
Date/Time
CST
Temp

°C
Wind Pressure Rain
since 9am
mm
Weather Cloud Vis
km
Sea
Height
m
Swell
Dir
 
Speed
knots
Gust
knots
hPa Trend Height
m
Period
s
Dir
03/11:30pm 26.9 ESE 5 7 1012.0 - 2.2 - - 10 - - - -
03/11:00pm 27.0 SE 6 8 1012.2 - 2.2 - - 10 - - - -
03/10:30pm 27.3 ESE 7 9 1012.1 - 2.2 - Partly cloudy 10 - - - -
03/10:00pm 27.1 SE 5 6 1012.2 - 2.2 - Partly cloudy 10 - - - -
03/09:30pm 27.4 ESE 4 5 1012.1 - 2.2 - Partly cloudy 10 - - - -
03/09:00pm 27.5 ESE 4 4 1011.9 - 2.2 - Mostly cloudy 10 - - - -
03/08:30pm 27.4 E 4 5 1011.6 - 2.2 - - 10 - - - -
03/08:00pm 27.0 CALM 0 0 1011.3 - 2.2 - - 10 - - - -
03/07:30pm 26.9 CALM 0 0 1011.1 - 2.2 - - 10 - - - -
03/07:00pm 27.5 CALM 0 3 1010.7 - 2.2 - - 10 - - - -
03/06:30pm 27.5 E 4 4 1010.2 - 2.2 - Partly cloudy 10 - - - -
03/06:00pm 28.0 E 3 4 1009.8 - 2.2 Drizzle Cloudy 10 - - - -
03/05:30pm 28.4 E 3 6 1009.5 - 2.2 - - 10 - - - -
03/05:00pm 28.6 E 4 5 1009.1 - 2.2 - - 10 - - - -
03/04:30pm 28.9 ENE 5 7 1008.9 - 2.2 - - 10 - - - -
03/04:00pm 28.9 ENE 6 8 1008.5 - 2.2 - - 10 - - - -
03/03:30pm 29.4 NE 5 8 1008.8 - 2.2 - - 10 - - - -
03/03:00pm 29.6 ENE 5 8 1009.1 - 2.2 - Mostly cloudy 10 - - - -
03/02:30pm 29.9 NE 3 6 1009.7 - 2.2 - - 10 - - - -
03/02:00pm 30.0 E 5 6 1010.1 - 2.2 - - 10 - - - -
03/01:30pm 30.2 E 3 5 1010.4 - 2.2 - - 10 - - - -
03/01:00pm 30.3 E 5 8 1010.9 - 2.2 - - 10 - - - -
03/12:30pm 29.9 ENE 5 9 1011.6 - 2.2 - - 10 - - - -
03/12:00pm 29.1 ESE 5 8 1012.1 - 2.2 Showers Mostly cloudy 10 - - - -
03/11:30am 27.9 SE 4 6 1012.4 - 2.2 - - 10 - - - -
03/11:00am 26.8 ESE 1 4 1012.8 - 2.2 - Partly cloudy 10 - - - -
03/10:30am 26.3 ENE 2 3 1013.0 - 2.0 - Partly cloudy 10 - - - -
03/10:00am 25.6 CALM 0 0 1013.4 - 1.8 - Partly cloudy 10 - - - -
03/09:30am 25.2 NE 3 5 1013.5 - 1.0 - Partly cloudy 10 - - - -
03/09:00am 25.8 ESE 6 9 1013.6 - 1.0 Rain Cloudy 10 - - - -
03/08:30am 26.0 SSE 4 6 1012.8 - 1.0 - Partly cloudy 10 - - - -
03/08:00am 25.7 SSE 5 7 1012.7 - 1.0 - Partly cloudy 10 - - - -
03/07:30am 25.3 SSE 4 5 1012.4 - 1.0 - Partly cloudy 10 - - - -
03/07:00am 25.1 SSE 1 4 1012.1 - 1.0 - Partly cloudy 10 - - - -
03/06:30am 25.0 SSE 4 5 1011.6 - 1.0 - - 10 - - - -
03/06:00am 24.9 SSE 5 6 1010.9 - 1.0 - Mostly clear 10 - - - -
03/05:30am 25.0 S 5 6 1010.6 - 1.0 - - 10 - - - -
03/05:00am 25.1 S 4 5 1010.7 - 1.0 - - 10 - - - -
03/04:30am 25.2 S 4 5 1010.7 - 1.0 - - 10 - - - -
03/04:00am 25.4 S 4 6 1010.5 - 1.0 - - 10 - - - -
03/03:30am 25.4 S 5 7 1010.4 - 1.0 - - 10 - - - -
03/03:00am 25.4 S 4 5 1010.3 - 1.0 - Mostly cloudy 10 - - - -
03/02:30am 25.4 S 4 6 1010.3 - 1.0 - - 10 - - - -
03/02:00am 25.5 SSE 3 4 1010.6 - 1.0 - - 10 - - - -
03/01:30am 25.4 SSE 5 6 1010.8 - 1.0 - - 10 - - - -
03/01:00am 25.5 SSE 4 6 1011.2 - 1.0 - - 10 - - - -
03/12:30am 25.4 SSE 5 7 1011.4 - 1.0 - - 10 - - - -
03/12:00am 25.4 S 4 6 1011.7 - 1.0 - - 10 - - - -
 
Date/Time
CST
Temp

°C
Wind Pressure Rain
since 9am
mm
Weather Cloud Vis
km
Sea
Height
m
Swell
Dir
 
Speed
knots
Gust
knots
hPa Trend Height
m
Period
s
Dir
02/11:30pm 25.4 S 5 6 1012.0 - 1.0 - - 10 - - - -
02/11:00pm 25.6 S 5 7 1012.2 - 1.0 - - 10 - - - -
02/10:30pm 25.7 S 5 6 1012.5 - 1.0 - - 10 - - - -
02/10:00pm 26.0 SSW 4 6 1012.6 - 1.0 - - 10 - - - -
02/09:30pm 26.1 S 6 9 1012.5 - 1.0 - - 10 - - - -
02/09:00pm 26.6 SE 4 5 1012.5 - 0.8 - - 10 - - - -
02/08:30pm 27.1 ESE 3 4 1012.4 - 0.8 - Partly cloudy 10 - - - -
02/08:00pm 27.5 ESE 4 5 1011.9 - 0.8 - Partly cloudy 10 - - - -
02/07:38pm 27.6 E 3 4 1011.7 - 0.8 - Partly cloudy 10 - - - -
02/07:30pm 27.8 E 4 6 1011.5 - 0.8 - Partly cloudy 10 - - - -
02/07:21pm 27.8 E 5 7 1011.4 - 0.8 - Partly cloudy 5 - - - -
02/07:00pm 28.6 E 5 9 1011.4 - 0.0 - Partly cloudy 10 - - - -
02/06:30pm 28.7 E 5 7 1010.8 - 0.0 - Partly cloudy 10 - - - -
02/06:00pm 29.1 ENE 6 9 1010.3 - 0.0 - Partly cloudy 10 - - - -
02/05:30pm 29.8 NE 7 10 1009.9 - 0.0 - Partly cloudy 10 - - - -
02/05:00pm 30.0 NE 7 10 1009.4 - 0.0 - - 10 - - - -
02/04:30pm 30.2 NE 7 11 1009.3 - 0.0 - - 10 - - - -
02/04:00pm 30.5 NNE 9 13 1009.1 - 0.0 - Partly cloudy 10 - - - -
02/03:30pm 30.5 NNE 8 11 1008.9 - 0.0 - Partly cloudy 10 - - - -
02/03:00pm 30.4 NE 9 13 1009.2 - 0.0 - Cloudy 10 - - - -
02/02:30pm 31.2 NNE 9 14 1009.4 - 0.0 - Partly cloudy 10 - - - -
02/02:00pm 31.0 NNE 10 15 1009.7 - 0.0 - Partly cloudy 10 - - - -
02/01:30pm 32.1 NE 8 11 1009.8 - 0.0 - Partly cloudy 10 - - - -
02/01:00pm 30.9 ENE 9 13 1010.5 - 0.0 - Partly cloudy 10 - - - -
02/12:30pm 31.2 NE 8 11 1011.1 - 0.0 - Partly cloudy 10 - - - -
02/12:00pm 30.4 NE 7 11 1011.7 - 0.0 - Mostly cloudy 10 - - - -
02/11:30am 30.6 NE 7 12 1012.1 - 0.0 - Partly cloudy 10 - - - -
02/11:00am 30.9 ENE 7 11 1012.5 - 0.0 - Partly cloudy 10 - - - -
02/10:30am 30.5 ENE 8 11 1012.6 - 0.0 - Partly cloudy 10 - - - -
02/10:00am 30.3 E 7 10 1012.6 - 0.0 - Partly cloudy 10 - - - -
02/09:30am 29.7 E 7 10 1012.3 - 0.0 - Partly cloudy 10 - - - -
02/09:00am 28.8 E 6 8 1012.0 - 11.2 - - 10 - - - -
02/08:30am 28.1 ESE 6 8 1011.8 - 11.2 - - 10 - - - -
02/08:00am 27.2 ESE 6 8 1011.5 - 11.2 - - 10 - - - -
02/07:30am 26.6 SE 6 8 1011.1 - 11.2 - - 10 - - - -
02/07:00am 25.8 SE 6 7 1010.8 - 11.2 - - 8 - - - -
02/06:30am 25.5 SSE 4 5 1010.4 - 11.2 - - 7 - - - -
02/06:00am 25.6 SSE 6 7 1010.2 - 11.2 Recent precip. - 8 - - - -
02/05:30am 25.6 SE 5 7 1009.9 - 11.2 - - 8 - - - -
02/05:00am 25.5 SE 5 7 1009.4 - 11.0 - - 8 - - - -
02/04:30am 25.5 SE 6 7 1009.4 - 11.0 - - 8 - - - -
02/04:00am 25.6 SSE 3 4 1009.6 - 11.0 - - 9 - - - -
02/03:30am 25.7 SSE 3 4 1009.6 - 11.0 - Partly cloudy 10 - - - -
02/03:00am 25.9 SE 3 4 1009.7 - 11.0 - Mostly cloudy 10 - - - -
02/02:30am 26.0 ESE 2 3 1009.6 - 11.0 - Partly cloudy 10 - - - -
02/02:00am 26.0 ESE 3 4 1009.9 - 11.0 - Partly cloudy 10 - - - -
02/01:30am 26.1 ESE 4 6 1010.0 - 11.0 - Partly cloudy 10 - - - -
02/01:00am 26.2 ESE 5 7 1010.5 - 11.0 - Partly cloudy 10 - - - -
02/12:30am 26.2 ESE 4 6 1010.9 - 11.0 - Partly cloudy 10 - - - -
02/12:00am 26.3 ESE 4 6 1011.2 - 11.0 - Cloudy 10 - - - -
 
Date/Time
CST
Temp

°C
Wind Pressure Rain
since 9am
mm
Weather Cloud Vis
km
Sea
Height
m
Swell
Dir
 
Speed
knots
Gust
knots
hPa Trend Height
m
Period
s
Dir
01/11:30pm 26.5 ESE 3 4 1011.5 - 11.0 - - 10 - - - -
01/11:00pm 26.6 ESE 6 7 1012.0 - 11.0 - Partly cloudy 10 - - - -
01/10:30pm 26.5 SE 7 8 1012.1 - 10.8 - Partly cloudy 10 - - - -
01/10:00pm 26.7 ESE 6 8 1011.6 - 10.8 - Partly cloudy 10 - - - -
01/09:30pm 26.5 SE 5 7 1011.9 - 10.8 - Partly cloudy 10 - - - -
01/09:00pm 26.3 SSE 5 6 1011.7 - 10.8 - Partly cloudy 10 - - - -
01/08:30pm 26.8 E 3 4 1011.5 - 10.8 - Partly cloudy 10 - - - -
01/08:00pm 26.4 E 4 6 1011.2 - 10.8 - Partly cloudy 10 - - - -
01/07:30pm 26.1 E 6 11 1010.8 - 10.8 - Partly cloudy 10 - - - -
01/07:00pm 26.9 S 3 6 1010.2 - 9.6 - - 10 - - - -
01/06:30pm 26.9 S 5 7 1010.1 - 9.6 - - 10 - - - -
01/06:00pm 27.4 S 6 8 1009.6 - 9.6 - - 10 - - - -
01/05:30pm 29.0 E 7 11 1009.1 - 9.6 - - 10 - - - -
01/05:00pm 28.8 ENE 1 4 1008.8 - 9.6 - - 10 - - - -
01/04:30pm 28.0 SSE 4 5 1008.6 - 9.6 - Partly cloudy 10 - - - -
01/04:00pm 27.7 SSE 6 8 1008.8 - 9.6 - Partly cloudy 10 - - - -

Other Formats:

Comma delimited format used in spreadsheet applications
http://www.bom.gov.au/fwo/IDD60701/IDD60701.95142.axf

JavaScript Object Notation format (JSON) in row-major order
http://www.bom.gov.au/fwo/IDD60701/IDD60701.95142.json